This demonstration page uses our WeatherBlox Daily Observations layout. Learn more.

39.92423, -83.80882

Hourly Observations for June 17, 2020

Temp ( °F °C ) Dew Point ( °F °C ) Humidity (%) Winds ( mph kmh ) Pressure ( in mb ) Visibility ( mi km ) Precip ( " mm )
12:56 am 00:56 Clear 61 16.1 55 12.8 81 81 N 3 6 30.23 1024 10 16.0934 0 0
1:56 am 01:56 Clear 61 16.1 56 13.3 84 84 Calm 30.21 1023 10 16.0934 0 0
2:56 am 02:56 Clear 59 15 55 12.8 87 87 Calm 30.2 1023 10 16.0934 0 0
3:56 am 03:56 Clear 58 14.4 56 13.3 93 93 N 3 6 30.19 1023 10 16.0934 0 0
4:56 am 04:56 Clear 57 13.9 56 13.3 96 96 Calm 30.19 1022 10 16.0934 0 0
5:56 am 05:56 Clear 57 13.9 56 13.3 96 96 Calm 30.2 1023 10 16.0934 0 0
6:56 am 06:56 Sunny 59 15 57 13.9 93 93 Calm 30.2 1023 10 16.0934 0 0
7:56 am 07:56 Sunny 64 17.8 59 15 84 84 NNE 5 7 30.21 1023 10 16.0934 0 0
8:56 am 08:56 Sunny 70 21.1 59 15 68 68 NE 7 11 30.21 1023 10 16.0934 0 0
9:56 am 09:56 Sunny 73 22.8 59 15 62 62 NE 8 13 30.21 1023 10 16.0934 0 0
10:56 am 10:56 Sunny 76 24.4 56 13.3 50 50 NE 14 22 30.2 1023 10 16.0934 0 0
11:56 am 11:56 Sunny 75 23.9 58 14.4 55 55 E 8 13 30.2 1023 10 16.0934 0 0
12:56 pm 12:56 Sunny 78 25.6 57 13.9 48 48 ENE 14 22 30.19 1022 10 16.0934 0 0
1:56 pm 13:56 Sunny 79 26.1 57 13.9 47 47 NE 15 24 30.17 1022 10 16.0934 0 0
2:56 pm 14:56 Mostly Sunny 80 26.7 57 13.9 45 45 NNE 12 19 30.15 1021 10 16.0934 0 0
3:56 pm 15:56 Mostly Sunny 81 27.2 58 14.4 45 45 NE 14 22 30.13 1020 10 16.0934 0 0
4:56 pm 16:56 Mostly Sunny 80 26.7 55 12.8 42 42 ENE 13 20 30.12 1020 10 16.0934 0 0
5:56 pm 17:56 Sunny 80 26.7 55 12.8 42 42 ENE 13 20 30.1 1019 10 16.0934 0 0
6:56 pm 18:56 Sunny 77 25 53 11.7 43 43 E 14 22 30.1 1019 10 16.0934 0 0
7:56 pm 19:56 Sunny 75 23.9 53 11.7 46 46 E 10 17 30.1 1019 10 16.0934 0 0
8:56 pm 20:56 Sunny 71 21.7 55 12.8 57 57 E 7 11 30.1 1019 10 16.0934 0 0
9:56 pm 21:56 Clear 68 20 56 13.3 65 65 ESE 6 9 30.11 1020 7 11.26538 0 0
10:56 pm 22:56 Clear 65 18.3 56 13.3 73 73 E 6 9 30.11 1020 10 16.0934 0 0
11:56 pm 23:56 Partly Cloudy 63 17.2 57 13.9 81 81 ENE 5 7 30.12 1020 10 16.0934 0 0

Powered by AerisWeather